メインページ
METAR-TAF:

METAR-TAF

空港 :

成田国際空港

東京 / 成田国際空港, 日本

緯度: 35-46N, 経度: 140-23E, 海抜: 41m

現時点の気象観測

当レポートは23分前の12:00(UTC)に作成
の風 9kt
気温 18°C
湿度 88%
気圧 1010 hPa
視程10km以上
高度2000ftの雲はほとんどない
高度16000ftの雲は散在している
千切れ雲あり

METAR: RJAA 161200Z 01009KT 9999 FEW020 SCT160 BKN/// 18/16 Q1010 NOSIG RMK 1CU020 3AC160 A2984

時間: 21:23 (12:23 UTC)

予報

当レポートは1時間18分前の11:05(UTC)に作成
予報は16日の 12時(UTC)から 17日の 18時(UTC)まで有効
の風 6kt
視程10km以上
高度1500ftの雲はほとんどない
高度4000ftの雲は散在している

TAF: RJAA 161105Z 1612/1718 36006KT 9999 FEW015 SCT040

4,000以上の空港の気象観測と天気予報(METAR報とTAF報)

利用可能な観測所は地図上に黄色い丸と赤い丸で示す。

丸の上にカーソルを重ねると観測所名を参照できる。

次にクリックすると気象観測と天気予報を参照できる。

マップの切り替え:黒色「×」印の緑ボタンをクリックして拡大、「-」印の緑ボタンをクリックして縮小、緑色の三角印をクリックして隣りの地図に切り替え


METAR-TAF: